sensor_id;sensor_type;location;lat;lon;timestamp;temperature;humidity
26037;DHT22;13810;48.376;10.944;2023-05-29T00:00:06;10.30;99.90
26037;DHT22;13810;48.376;10.944;2023-05-29T00:00:37;10.30;99.90
26037;DHT22;13810;48.376;10.944;2023-05-29T00:01:08;10.20;99.90
26037;DHT22;13810;48.376;10.944;2023-05-29T00:01:39;10.20;99.90
26037;DHT22;13810;48.376;10.944;2023-05-29T00:02:11;10.20;99.90
26037;DHT22;13810;48.376;10.944;2023-05-29T00:02:41;10.20;99.90
26037;DHT22;13810;48.376;10.944;2023-05-29T00:03:14;10.20;99.90
26037;DHT22;13810;48.376;10.944;2023-05-29T00:03:45;10.20;99.90
26037;DHT22;13810;48.376;10.944;2023-05-29T00:04:15;10.20;99.90
26037;DHT22;13810;48.376;10.944;2023-05-29T00:04:46;10.20;99.90
26037;DHT22;13810;48.376;10.944;2023-05-29T00:05:17;10.20;99.90
26037;DHT22;13810;48.376;10.944;2023-05-29T00:05:48;10.20;99.90
26037;DHT22;13810;48.376;10.944;2023-05-29T00:06:19;10.20;99.90
26037;DHT22;13810;48.376;10.944;2023-05-29T00:06:50;10.20;99.90
26037;DHT22;13810;48.376;10.944;2023-05-29T00:07:21;10.20;99.90
26037;DHT22;13810;48.376;10.944;2023-05-29T00:07:51;10.20;99.90
26037;DHT22;13810;48.376;10.944;2023-05-29T00:08:22;10.20;99.90
26037;DHT22;13810;48.376;10.944;2023-05-29T00:08:53;10.10;99.90
26037;DHT22;13810;48.376;10.944;2023-05-29T00:09:23;10.20;99.90
26037;DHT22;13810;48.376;10.944;2023-05-29T00:09:54;10.10;99.90
26037;DHT22;13810;48.376;10.944;2023-05-29T00:10:25;10.20;99.90
26037;DHT22;13810;48.376;10.944;2023-05-29T00:10:55;10.10;99.90
26037;DHT22;13810;48.376;10.944;2023-05-29T00:11:26;10.10;99.90
26037;DHT22;13810;48.376;10.944;2023-05-29T00:11:57;10.10;99.90
26037;DHT22;13810;48.376;10.944;2023-05-29T00:12:28;10.10;99.90
26037;DHT22;13810;48.376;10.944;2023-05-29T00:12:59;10.10;99.90
26037;DHT22;13810;48.376;10.944;2023-05-29T00:13:31;10.10;99.90
26037;DHT22;13810;48.376;10.944;2023-05-29T00:14:02;10.10;99.90
26037;DHT22;13810;48.376;10.944;2023-05-29T00:14:33;10.10;99.90
26037;DHT22;13810;48.376;10.944;2023-05-29T00:15:04;10.10;99.90
26037;DHT22;13810;48.376;10.944;2023-05-29T00:15:35;10.00;99.90
26037;DHT22;13810;48.376;10.944;2023-05-29T00:16:06;10.10;99.90
26037;DHT22;13810;48.376;10.944;2023-05-29T00:16:37;10.00;99.90
26037;DHT22;13810;48.376;10.944;2023-05-29T00:17:07;10.00;99.90
26037;DHT22;13810;48.376;10.944;2023-05-29T00:17:39;10.00;99.90
26037;DHT22;13810;48.376;10.944;2023-05-29T00:18:10;10.00;99.90
26037;DHT22;13810;48.376;10.944;2023-05-29T00:18:41;10.00;99.90
26037;DHT22;13810;48.376;10.944;2023-05-29T00:19:16;9.90;99.90
26037;DHT22;13810;48.376;10.944;2023-05-29T00:19:54;9.90;99.90
26037;DHT22;13810;48.376;10.944;2023-05-29T00:20:24;9.90;99.90
26037;DHT22;13810;48.376;10.944;2023-05-29T00:20:55;9.90;99.90
26037;DHT22;13810;48.376;10.944;2023-05-29T00:21:26;9.90;99.90
26037;DHT22;13810;48.376;10.944;2023-05-29T00:21:57;9.90;99.90
26037;DHT22;13810;48.376;10.944;2023-05-29T00:22:28;9.90;99.90
26037;DHT22;13810;48.376;10.944;2023-05-29T00:22:58;9.90;99.90
26037;DHT22;13810;48.376;10.944;2023-05-29T00:23:29;9.90;99.90
26037;DHT22;13810;48.376;10.944;2023-05-29T00:24:00;9.90;99.90
26037;DHT22;13810;48.376;10.944;2023-05-29T00:24:31;9.90;99.90
26037;DHT22;13810;48.376;10.944;2023-05-29T00:25:01;9.90;99.90
26037;DHT22;13810;48.376;10.944;2023-05-29T00:25:33;9.90;99.90
26037;DHT22;13810;48.376;10.944;2023-05-29T00:26:04;9.90;99.90
26037;DHT22;13810;48.376;10.944;2023-05-29T00:26:35;9.90;99.90
26037;DHT22;13810;48.376;10.944;2023-05-29T00:27:06;9.90;99.90
26037;DHT22;13810;48.376;10.944;2023-05-29T00:27:36;9.90;99.90
26037;DHT22;13810;48.376;10.944;2023-05-29T00:28:07;9.90;99.90
26037;DHT22;13810;48.376;10.944;2023-05-29T00:28:39;9.90;99.90
26037;DHT22;13810;48.376;10.944;2023-05-29T00:29:10;9.90;99.90
26037;DHT22;13810;48.376;10.944;2023-05-29T00:29:40;9.90;99.90
26037;DHT22;13810;48.376;10.944;2023-05-29T00:30:11;9.90;99.90
26037;DHT22;13810;48.376;10.944;2023-05-29T00:30:42;9.90;99.90
26037;DHT22;13810;48.376;10.944;2023-05-29T00:31:12;9.90;99.90
26037;DHT22;13810;48.376;10.944;2023-05-29T00:31:43;9.90;99.90
26037;DHT22;13810;48.376;10.944;2023-05-29T00:32:14;9.90;99.90
26037;DHT22;13810;48.376;10.944;2023-05-29T00:32:44;9.90;99.90
26037;DHT22;13810;48.376;10.944;2023-05-29T00:33:16;9.90;99.90
26037;DHT22;13810;48.376;10.944;2023-05-29T00:33:48;9.90;99.90
26037;DHT22;13810;48.376;10.944;2023-05-29T00:34:22;9.90;99.90
26037;DHT22;13810;48.376;10.944;2023-05-29T00:34:54;9.90;99.90
26037;DHT22;13810;48.376;10.944;2023-05-29T00:35:25;9.90;99.90
26037;DHT22;13810;48.376;10.944;2023-05-29T00:35:56;9.90;99.90
26037;DHT22;13810;48.376;10.944;2023-05-29T00:36:26;9.90;99.90
26037;DHT22;13810;48.376;10.944;2023-05-29T00:36:59;9.90;99.90
26037;DHT22;13810;48.376;10.944;2023-05-29T00:37:29;9.90;99.90
26037;DHT22;13810;48.376;10.944;2023-05-29T00:38:00;9.90;99.90
26037;DHT22;13810;48.376;10.944;2023-05-29T00:38:31;9.90;99.90
26037;DHT22;13810;48.376;10.944;2023-05-29T00:39:01;9.90;99.90
26037;DHT22;13810;48.376;10.944;2023-05-29T00:39:33;9.90;99.90
26037;DHT22;13810;48.376;10.944;2023-05-29T00:40:04;9.90;99.90
26037;DHT22;13810;48.376;10.944;2023-05-29T00:40:34;9.90;99.90
26037;DHT22;13810;48.376;10.944;2023-05-29T00:41:05;9.90;99.90
26037;DHT22;13810;48.376;10.944;2023-05-29T00:41:36;9.90;99.90
26037;DHT22;13810;48.376;10.944;2023-05-29T00:42:06;9.90;99.90
26037;DHT22;13810;48.376;10.944;2023-05-29T00:42:37;9.90;99.90
26037;DHT22;13810;48.376;10.944;2023-05-29T00:43:08;9.90;99.90
26037;DHT22;13810;48.376;10.944;2023-05-29T00:43:39;9.90;99.90
26037;DHT22;13810;48.376;10.944;2023-05-29T00:44:09;9.90;99.90
26037;DHT22;13810;48.376;10.944;2023-05-29T00:44:40;9.90;99.90
26037;DHT22;13810;48.376;10.944;2023-05-29T00:45:11;9.90;99.90
26037;DHT22;13810;48.376;10.944;2023-05-29T00:45:43;9.90;99.90
26037;DHT22;13810;48.376;10.944;2023-05-29T00:46:16;9.90;99.90
26037;DHT22;13810;48.376;10.944;2023-05-29T00:46:48;9.90;99.90
26037;DHT22;13810;48.376;10.944;2023-05-29T00:47:19;9.90;99.90
26037;DHT22;13810;48.376;10.944;2023-05-29T00:47:50;9.90;99.90
26037;DHT22;13810;48.376;10.944;2023-05-29T00:48:21;9.90;99.90
26037;DHT22;13810;48.376;10.944;2023-05-29T00:48:51;9.90;99.90
26037;DHT22;13810;48.376;10.944;2023-05-29T00:49:24;9.90;99.90
26037;DHT22;13810;48.376;10.944;2023-05-29T00:49:56;9.90;99.90
26037;DHT22;13810;48.376;10.944;2023-05-29T00:50:27;9.90;99.90
26037;DHT22;13810;48.376;10.944;2023-05-29T00:50:58;9.90;99.90
26037;DHT22;13810;48.376;10.944;2023-05-29T00:51:29;9.90;99.90
26037;DHT22;13810;48.376;10.944;2023-05-29T00:52:02;9.90;99.90
26037;DHT22;13810;48.376;10.944;2023-05-29T00:52:33;9.90;99.90
26037;DHT22;13810;48.376;10.944;2023-05-29T00:53:04;9.90;99.90
26037;DHT22;13810;48.376;10.944;2023-05-29T00:53:36;9.90;99.90
26037;DHT22;13810;48.376;10.944;2023-05-29T00:54:12;9.90;99.90
26037;DHT22;13810;48.376;10.944;2023-05-29T00:54:44;9.90;99.90
26037;DHT22;13810;48.376;10.944;2023-05-29T00:55:16;9.90;99.90
26037;DHT22;13810;48.376;10.944;2023-05-29T00:55:46;9.90;99.90
26037;DHT22;13810;48.376;10.944;2023-05-29T00:56:18;9.90;99.90
26037;DHT22;13810;48.376;10.944;2023-05-29T00:56:51;9.90;99.90
26037;DHT22;13810;48.376;10.944;2023-05-29T00:57:22;9.90;99.90
26037;DHT22;13810;48.376;10.944;2023-05-29T00:57:53;9.80;99.90
26037;DHT22;13810;48.376;10.944;2023-05-29T00:58:24;9.80;99.90
26037;DHT22;13810;48.376;10.944;2023-05-29T00:58:56;9.80;99.90
26037;DHT22;13810;48.376;10.944;2023-05-29T00:59:29;9.80;99.90
26037;DHT22;13810;48.376;10.944;2023-05-29T01:00:02;9.80;99.90
26037;DHT22;13810;48.376;10.944;2023-05-29T01:00:35;9.80;99.90
26037;DHT22;13810;48.376;10.944;2023-05-29T01:01:06;9.70;99.90
26037;DHT22;13810;48.376;10.944;2023-05-29T01:01:37;9.80;99.90
26037;DHT22;13810;48.376;10.944;2023-05-29T01:02:08;9.80;99.90
26037;DHT22;13810;48.376;10.944;2023-05-29T01:02:41;9.70;99.90
26037;DHT22;13810;48.376;10.944;2023-05-29T01:03:15;9.70;99.90
26037;DHT22;13810;48.376;10.944;2023-05-29T01:03:47;9.70;99.90
26037;DHT22;13810;48.376;10.944;2023-05-29T01:04:20;9.70;99.90
26037;DHT22;13810;48.376;10.944;2023-05-29T01:04:51;9.70;99.90
26037;DHT22;13810;48.376;10.944;2023-05-29T01:05:24;9.70;99.90
26037;DHT22;13810;48.376;10.944;2023-05-29T01:05:55;9.70;99.90
26037;DHT22;13810;48.376;10.944;2023-05-29T01:06:28;9.70;99.90
26037;DHT22;13810;48.376;10.944;2023-05-29T01:07:02;9.70;99.90
26037;DHT22;13810;48.376;10.944;2023-05-29T01:07:34;9.70;99.90
26037;DHT22;13810;48.376;10.944;2023-05-29T01:08:04;9.60;99.90
26037;DHT22;13810;48.376;10.944;2023-05-29T01:08:35;9.60;99.90
26037;DHT22;13810;48.376;10.944;2023-05-29T01:09:06;9.60;99.90
26037;DHT22;13810;48.376;10.944;2023-05-29T01:09:37;9.60;99.90
26037;DHT22;13810;48.376;10.944;2023-05-29T01:10:08;9.50;99.90
26037;DHT22;13810;48.376;10.944;2023-05-29T01:10:40;9.50;99.90
26037;DHT22;13810;48.376;10.944;2023-05-29T01:11:31;9.50;99.90
26037;DHT22;13810;48.376;10.944;2023-05-29T01:12:59;9.40;99.90
26037;DHT22;13810;48.376;10.944;2023-05-29T01:13:34;9.40;99.90
26037;DHT22;13810;48.376;10.944;2023-05-29T01:14:08;9.40;99.90
26037;DHT22;13810;48.376;10.944;2023-05-29T01:14:59;9.40;99.90
26037;DHT22;13810;48.376;10.944;2023-05-29T01:15:58;9.40;99.90
26037;DHT22;13810;48.376;10.944;2023-05-29T01:16:52;9.40;99.90
26037;DHT22;13810;48.376;10.944;2023-05-29T01:18:39;9.30;99.90
26037;DHT22;13810;48.376;10.944;2023-05-29T01:20:42;9.30;99.90
26037;DHT22;13810;48.376;10.944;2023-05-29T01:22:09;9.30;99.90
26037;DHT22;13810;48.376;10.944;2023-05-29T01:22:35;9.30;99.90
26037;DHT22;13810;48.376;10.944;2023-05-29T01:24:05;9.20;99.90
26037;DHT22;13810;48.376;10.944;2023-05-29T01:27:33;9.20;99.90
26037;DHT22;13810;48.376;10.944;2023-05-29T01:28:04;9.10;99.90
26037;DHT22;13810;48.376;10.944;2023-05-29T01:28:57;9.10;99.90
26037;DHT22;13810;48.376;10.944;2023-05-29T01:29:34;9.10;99.90
26037;DHT22;13810;48.376;10.944;2023-05-29T01:30:06;9.00;99.90
26037;DHT22;13810;48.376;10.944;2023-05-29T01:30:39;9.00;99.90
26037;DHT22;13810;48.376;10.944;2023-05-29T01:31:11;9.00;99.90
26037;DHT22;13810;48.376;10.944;2023-05-29T01:31:44;9.00;99.90
26037;DHT22;13810;48.376;10.944;2023-05-29T01:32:16;9.00;99.90
26037;DHT22;13810;48.376;10.944;2023-05-29T01:32:47;9.00;99.90
26037;DHT22;13810;48.376;10.944;2023-05-29T01:33:17;9.00;99.90
26037;DHT22;13810;48.376;10.944;2023-05-29T01:33:56;9.00;99.90
26037;DHT22;13810;48.376;10.944;2023-05-29T01:34:27;9.00;99.90
26037;DHT22;13810;48.376;10.944;2023-05-29T01:34:58;8.90;99.90
26037;DHT22;13810;48.376;10.944;2023-05-29T01:35:29;8.90;99.90
26037;DHT22;13810;48.376;10.944;2023-05-29T01:36:00;8.90;99.90
26037;DHT22;13810;48.376;10.944;2023-05-29T01:36:30;8.90;99.90
26037;DHT22;13810;48.376;10.944;2023-05-29T01:37:03;8.90;99.90
26037;DHT22;13810;48.376;10.944;2023-05-29T01:37:34;8.90;99.90
26037;DHT22;13810;48.376;10.944;2023-05-29T01:38:04;8.90;99.90
26037;DHT22;13810;48.376;10.944;2023-05-29T01:38:35;8.90;99.90
26037;DHT22;13810;48.376;10.944;2023-05-29T01:39:06;8.90;99.90
26037;DHT22;13810;48.376;10.944;2023-05-29T01:39:37;8.90;99.90
26037;DHT22;13810;48.376;10.944;2023-05-29T01:40:08;8.90;99.90
26037;DHT22;13810;48.376;10.944;2023-05-29T01:40:39;8.90;99.90
26037;DHT22;13810;48.376;10.944;2023-05-29T01:41:10;8.90;99.90
26037;DHT22;13810;48.376;10.944;2023-05-29T01:41:43;8.90;99.90
26037;DHT22;13810;48.376;10.944;2023-05-29T01:42:15;8.90;99.90
26037;DHT22;13810;48.376;10.944;2023-05-29T01:42:45;8.90;99.90
26037;DHT22;13810;48.376;10.944;2023-05-29T01:43:16;8.90;99.90
26037;DHT22;13810;48.376;10.944;2023-05-29T01:43:47;8.90;99.90
26037;DHT22;13810;48.376;10.944;2023-05-29T01:44:20;8.90;99.90
26037;DHT22;13810;48.376;10.944;2023-05-29T01:44:51;8.90;99.90
26037;DHT22;13810;48.376;10.944;2023-05-29T01:45:22;8.90;99.90
26037;DHT22;13810;48.376;10.944;2023-05-29T01:45:53;8.90;99.90
26037;DHT22;13810;48.376;10.944;2023-05-29T01:46:24;8.90;99.90
26037;DHT22;13810;48.376;10.944;2023-05-29T01:46:58;8.90;99.90
26037;DHT22;13810;48.376;10.944;2023-05-29T01:47:28;8.90;99.90
26037;DHT22;13810;48.376;10.944;2023-05-29T01:48:00;8.90;99.90
26037;DHT22;13810;48.376;10.944;2023-05-29T01:48:30;8.90;99.90
26037;DHT22;13810;48.376;10.944;2023-05-29T01:49:01;8.90;99.90
26037;DHT22;13810;48.376;10.944;2023-05-29T01:49:33;8.90;99.90
26037;DHT22;13810;48.376;10.944;2023-05-29T01:50:05;8.90;99.90
26037;DHT22;13810;48.376;10.944;2023-05-29T01:50:36;8.90;99.90
26037;DHT22;13810;48.376;10.944;2023-05-29T01:51:08;8.90;99.90
26037;DHT22;13810;48.376;10.944;2023-05-29T01:51:41;8.90;99.90
26037;DHT22;13810;48.376;10.944;2023-05-29T01:52:12;8.90;99.90
26037;DHT22;13810;48.376;10.944;2023-05-29T01:52:43;8.90;99.90
26037;DHT22;13810;48.376;10.944;2023-05-29T01:53:14;8.90;99.90
26037;DHT22;13810;48.376;10.944;2023-05-29T01:53:44;8.90;99.90
26037;DHT22;13810;48.376;10.944;2023-05-29T01:54:15;8.90;99.90
26037;DHT22;13810;48.376;10.944;2023-05-29T01:54:46;8.90;99.90
26037;DHT22;13810;48.376;10.944;2023-05-29T01:55:16;8.90;99.90
26037;DHT22;13810;48.376;10.944;2023-05-29T01:55:48;8.90;99.90
26037;DHT22;13810;48.376;10.944;2023-05-29T01:56:19;8.90;99.90
26037;DHT22;13810;48.376;10.944;2023-05-29T01:56:51;8.90;99.90
26037;DHT22;13810;48.376;10.944;2023-05-29T01:57:22;8.90;99.90
26037;DHT22;13810;48.376;10.944;2023-05-29T01:57:54;8.90;99.90
26037;DHT22;13810;48.376;10.944;2023-05-29T01:58:25;8.90;99.90
26037;DHT22;13810;48.376;10.944;2023-05-29T01:58:57;8.90;99.90
26037;DHT22;13810;48.376;10.944;2023-05-29T01:59:29;8.90;99.90
26037;DHT22;13810;48.376;10.944;2023-05-29T02:00:00;8.90;99.90
26037;DHT22;13810;48.376;10.944;2023-05-29T02:00:32;8.90;99.90
26037;DHT22;13810;48.376;10.944;2023-05-29T02:01:03;8.90;99.90
26037;DHT22;13810;48.376;10.944;2023-05-29T02:01:39;8.90;99.90
26037;DHT22;13810;48.376;10.944;2023-05-29T02:02:10;8.90;99.90
26037;DHT22;13810;48.376;10.944;2023-05-29T02:02:42;8.90;99.90
26037;DHT22;13810;48.376;10.944;2023-05-29T02:03:13;8.90;99.90
26037;DHT22;13810;48.376;10.944;2023-05-29T02:03:44;8.90;99.90
26037;DHT22;13810;48.376;10.944;2023-05-29T02:04:14;8.90;99.90
26037;DHT22;13810;48.376;10.944;2023-05-29T02:04:45;8.80;99.90
26037;DHT22;13810;48.376;10.944;2023-05-29T02:05:16;8.90;99.90
26037;DHT22;13810;48.376;10.944;2023-05-29T02:05:47;8.80;99.90
26037;DHT22;13810;48.376;10.944;2023-05-29T02:06:18;8.80;99.90
26037;DHT22;13810;48.376;10.944;2023-05-29T02:06:49;8.90;99.90
26037;DHT22;13810;48.376;10.944;2023-05-29T02:07:20;8.80;99.90
26037;DHT22;13810;48.376;10.944;2023-05-29T02:07:50;8.80;99.90
26037;DHT22;13810;48.376;10.944;2023-05-29T02:08:21;8.90;99.90
26037;DHT22;13810;48.376;10.944;2023-05-29T02:08:52;8.90;99.90
26037;DHT22;13810;48.376;10.944;2023-05-29T02:09:23;8.80;99.90
26037;DHT22;13810;48.376;10.944;2023-05-29T02:09:53;8.80;99.90
26037;DHT22;13810;48.376;10.944;2023-05-29T02:10:24;8.80;99.90
26037;DHT22;13810;48.376;10.944;2023-05-29T02:10:55;8.90;99.90
26037;DHT22;13810;48.376;10.944;2023-05-29T02:11:26;8.80;99.90
26037;DHT22;13810;48.376;10.944;2023-05-29T02:11:57;8.90;99.90
26037;DHT22;13810;48.376;10.944;2023-05-29T02:12:27;8.80;99.90
26037;DHT22;13810;48.376;10.944;2023-05-29T02:12:58;8.90;99.90
26037;DHT22;13810;48.376;10.944;2023-05-29T02:13:29;8.80;99.90
26037;DHT22;13810;48.376;10.944;2023-05-29T02:13:59;8.80;99.90
26037;DHT22;13810;48.376;10.944;2023-05-29T02:14:34;8.90;99.90
26037;DHT22;13810;48.376;10.944;2023-05-29T02:15:05;8.90;99.90
26037;DHT22;13810;48.376;10.944;2023-05-29T02:15:36;8.90;99.90
26037;DHT22;13810;48.376;10.944;2023-05-29T02:16:07;8.80;99.90
26037;DHT22;13810;48.376;10.944;2023-05-29T02:16:37;8.90;99.90
26037;DHT22;13810;48.376;10.944;2023-05-29T02:17:11;8.90;99.90
26037;DHT22;13810;48.376;10.944;2023-05-29T02:17:41;8.90;99.90
26037;DHT22;13810;48.376;10.944;2023-05-29T02:18:14;8.90;99.90
26037;DHT22;13810;48.376;10.944;2023-05-29T02:18:45;8.90;99.90
26037;DHT22;13810;48.376;10.944;2023-05-29T02:19:16;8.80;99.90
26037;DHT22;13810;48.376;10.944;2023-05-29T02:19:48;8.90;99.90
26037;DHT22;13810;48.376;10.944;2023-05-29T02:20:19;8.80;99.90
26037;DHT22;13810;48.376;10.944;2023-05-29T02:20:49;8.80;99.90
26037;DHT22;13810;48.376;10.944;2023-05-29T02:21:20;8.80;99.90
26037;DHT22;13810;48.376;10.944;2023-05-29T02:21:51;8.80;99.90
26037;DHT22;13810;48.376;10.944;2023-05-29T02:22:22;8.80;99.90
26037;DHT22;13810;48.376;10.944;2023-05-29T02:22:52;8.80;99.90
26037;DHT22;13810;48.376;10.944;2023-05-29T02:23:23;8.70;99.90
26037;DHT22;13810;48.376;10.944;2023-05-29T02:23:54;8.70;99.90
26037;DHT22;13810;48.376;10.944;2023-05-29T02:24:24;8.80;99.90
26037;DHT22;13810;48.376;10.944;2023-05-29T02:24:55;8.80;99.90
26037;DHT22;13810;48.376;10.944;2023-05-29T02:25:26;8.80;99.90
26037;DHT22;13810;48.376;10.944;2023-05-29T02:25:57;8.80;99.90
26037;DHT22;13810;48.376;10.944;2023-05-29T02:26:27;8.80;99.90
26037;DHT22;13810;48.376;10.944;2023-05-29T02:26:58;8.70;99.90
26037;DHT22;13810;48.376;10.944;2023-05-29T02:27:29;8.80;99.90
26037;DHT22;13810;48.376;10.944;2023-05-29T02:27:59;8.80;99.90
26037;DHT22;13810;48.376;10.944;2023-05-29T02:28:30;8.80;99.90
26037;DHT22;13810;48.376;10.944;2023-05-29T02:29:00;8.80;99.90
26037;DHT22;13810;48.376;10.944;2023-05-29T02:29:31;8.80;99.90
26037;DHT22;13810;48.376;10.944;2023-05-29T02:30:02;8.70;99.90
26037;DHT22;13810;48.376;10.944;2023-05-29T02:30:34;8.80;99.90
26037;DHT22;13810;48.376;10.944;2023-05-29T02:31:05;8.70;99.90
26037;DHT22;13810;48.376;10.944;2023-05-29T02:31:35;8.80;99.90
26037;DHT22;13810;48.376;10.944;2023-05-29T02:32:06;8.80;99.90
26037;DHT22;13810;48.376;10.944;2023-05-29T02:32:37;8.70;99.90
26037;DHT22;13810;48.376;10.944;2023-05-29T02:33:07;8.80;99.90
26037;DHT22;13810;48.376;10.944;2023-05-29T02:33:39;8.70;99.90
26037;DHT22;13810;48.376;10.944;2023-05-29T02:34:09;8.70;99.90
26037;DHT22;13810;48.376;10.944;2023-05-29T02:34:40;8.80;99.90
26037;DHT22;13810;48.376;10.944;2023-05-29T02:35:10;8.80;99.90
26037;DHT22;13810;48.376;10.944;2023-05-29T02:35:43;8.80;99.90
26037;DHT22;13810;48.376;10.944;2023-05-29T02:36:14;8.70;99.90
26037;DHT22;13810;48.376;10.944;2023-05-29T02:36:46;8.70;99.90
26037;DHT22;13810;48.376;10.944;2023-05-29T02:37:17;8.70;99.90
26037;DHT22;13810;48.376;10.944;2023-05-29T02:37:48;8.80;99.90
26037;DHT22;13810;48.376;10.944;2023-05-29T02:38:19;8.70;99.90
26037;DHT22;13810;48.376;10.944;2023-05-29T02:38:49;8.70;99.90
26037;DHT22;13810;48.376;10.944;2023-05-29T02:39:20;8.70;99.90
26037;DHT22;13810;48.376;10.944;2023-05-29T02:39:51;8.70;99.90
26037;DHT22;13810;48.376;10.944;2023-05-29T02:40:22;8.70;99.90
26037;DHT22;13810;48.376;10.944;2023-05-29T02:40:53;8.60;99.90
26037;DHT22;13810;48.376;10.944;2023-05-29T02:41:24;8.60;99.90
26037;DHT22;13810;48.376;10.944;2023-05-29T02:41:55;8.60;99.90
26037;DHT22;13810;48.376;10.944;2023-05-29T02:42:26;8.60;99.90
26037;DHT22;13810;48.376;10.944;2023-05-29T02:42:57;8.60;99.90
26037;DHT22;13810;48.376;10.944;2023-05-29T02:43:27;8.50;99.90
26037;DHT22;13810;48.376;10.944;2023-05-29T02:43:58;8.50;99.90
26037;DHT22;13810;48.376;10.944;2023-05-29T02:44:29;8.50;99.90
26037;DHT22;13810;48.376;10.944;2023-05-29T02:44:59;8.50;99.90
26037;DHT22;13810;48.376;10.944;2023-05-29T02:45:30;8.50;99.90
26037;DHT22;13810;48.376;10.944;2023-05-29T02:46:00;8.50;99.90
26037;DHT22;13810;48.376;10.944;2023-05-29T02:46:31;8.50;99.90
26037;DHT22;13810;48.376;10.944;2023-05-29T02:47:02;8.50;99.90
26037;DHT22;13810;48.376;10.944;2023-05-29T02:47:32;8.50;99.90
26037;DHT22;13810;48.376;10.944;2023-05-29T02:48:03;8.50;99.90
26037;DHT22;13810;48.376;10.944;2023-05-29T02:48:34;8.50;99.90
26037;DHT22;13810;48.376;10.944;2023-05-29T02:49:04;8.50;99.90
26037;DHT22;13810;48.376;10.944;2023-05-29T02:49:35;8.50;99.90
26037;DHT22;13810;48.376;10.944;2023-05-29T02:50:06;8.50;99.90
26037;DHT22;13810;48.376;10.944;2023-05-29T02:50:36;8.50;99.90
26037;DHT22;13810;48.376;10.944;2023-05-29T02:51:07;8.50;99.90
26037;DHT22;13810;48.376;10.944;2023-05-29T02:51:38;8.50;99.90
26037;DHT22;13810;48.376;10.944;2023-05-29T02:52:08;8.50;99.90
26037;DHT22;13810;48.376;10.944;2023-05-29T02:52:39;8.50;99.90
26037;DHT22;13810;48.376;10.944;2023-05-29T02:53:10;8.50;99.90
26037;DHT22;13810;48.376;10.944;2023-05-29T02:53:40;8.50;99.90
26037;DHT22;13810;48.376;10.944;2023-05-29T02:54:11;8.50;99.90
26037;DHT22;13810;48.376;10.944;2023-05-29T02:54:42;8.50;99.90
26037;DHT22;13810;48.376;10.944;2023-05-29T02:55:13;8.50;99.90
26037;DHT22;13810;48.376;10.944;2023-05-29T02:55:44;8.50;99.90
26037;DHT22;13810;48.376;10.944;2023-05-29T02:56:14;8.50;99.90
26037;DHT22;13810;48.376;10.944;2023-05-29T02:56:46;8.50;99.90
26037;DHT22;13810;48.376;10.944;2023-05-29T02:57:16;8.50;99.90
26037;DHT22;13810;48.376;10.944;2023-05-29T02:57:47;8.50;99.90
26037;DHT22;13810;48.376;10.944;2023-05-29T02:58:20;8.50;99.90
26037;DHT22;13810;48.376;10.944;2023-05-29T02:58:51;8.50;99.90
26037;DHT22;13810;48.376;10.944;2023-05-29T02:59:22;8.50;99.90
26037;DHT22;13810;48.376;10.944;2023-05-29T02:59:52;8.40;99.90
26037;DHT22;13810;48.376;10.944;2023-05-29T03:00:23;8.50;99.90
26037;DHT22;13810;48.376;10.944;2023-05-29T03:00:55;8.40;99.90
26037;DHT22;13810;48.376;10.944;2023-05-29T03:01:25;8.40;99.90
26037;DHT22;13810;48.376;10.944;2023-05-29T03:01:56;8.40;99.90
26037;DHT22;13810;48.376;10.944;2023-05-29T03:02:26;8.50;99.90
26037;DHT22;13810;48.376;10.944;2023-05-29T03:02:57;8.50;99.90
26037;DHT22;13810;48.376;10.944;2023-05-29T03:03:28;8.50;99.90
26037;DHT22;13810;48.376;10.944;2023-05-29T03:03:58;8.50;99.90
26037;DHT22;13810;48.376;10.944;2023-05-29T03:04:29;8.50;99.90
26037;DHT22;13810;48.376;10.944;2023-05-29T03:05:00;8.50;99.90
26037;DHT22;13810;48.376;10.944;2023-05-29T03:05:30;8.50;99.90
26037;DHT22;13810;48.376;10.944;2023-05-29T03:06:01;8.40;99.90
26037;DHT22;13810;48.376;10.944;2023-05-29T03:06:32;8.40;99.90
26037;DHT22;13810;48.376;10.944;2023-05-29T03:07:03;8.50;99.90
26037;DHT22;13810;48.376;10.944;2023-05-29T03:07:34;8.40;99.90
26037;DHT22;13810;48.376;10.944;2023-05-29T03:08:05;8.50;99.90
26037;DHT22;13810;48.376;10.944;2023-05-29T03:08:36;8.40;99.90
26037;DHT22;13810;48.376;10.944;2023-05-29T03:09:15;8.40;99.90
26037;DHT22;13810;48.376;10.944;2023-05-29T03:09:46;8.50;99.90
26037;DHT22;13810;48.376;10.944;2023-05-29T03:10:17;8.50;99.90
26037;DHT22;13810;48.376;10.944;2023-05-29T03:10:48;8.50;99.90
26037;DHT22;13810;48.376;10.944;2023-05-29T03:11:18;8.50;99.90
26037;DHT22;13810;48.376;10.944;2023-05-29T03:11:49;8.50;99.90
26037;DHT22;13810;48.376;10.944;2023-05-29T03:12:20;8.50;99.90
26037;DHT22;13810;48.376;10.944;2023-05-29T03:12:51;8.50;99.90
26037;DHT22;13810;48.376;10.944;2023-05-29T03:13:22;8.50;99.90
26037;DHT22;13810;48.376;10.944;2023-05-29T03:13:53;8.40;99.90
26037;DHT22;13810;48.376;10.944;2023-05-29T03:14:23;8.40;99.90
26037;DHT22;13810;48.376;10.944;2023-05-29T03:14:54;8.50;99.90
26037;DHT22;13810;48.376;10.944;2023-05-29T03:15:26;8.50;99.90
26037;DHT22;13810;48.376;10.944;2023-05-29T03:15:57;8.50;99.90
26037;DHT22;13810;48.376;10.944;2023-05-29T03:16:28;8.50;99.90
26037;DHT22;13810;48.376;10.944;2023-05-29T03:16:59;8.50;99.90
26037;DHT22;13810;48.376;10.944;2023-05-29T03:17:30;8.50;99.90
26037;DHT22;13810;48.376;10.944;2023-05-29T03:18:00;8.50;99.90
26037;DHT22;13810;48.376;10.944;2023-05-29T03:18:31;8.50;99.90
26037;DHT22;13810;48.376;10.944;2023-05-29T03:19:02;8.50;99.90
26037;DHT22;13810;48.376;10.944;2023-05-29T03:19:33;8.50;99.90
26037;DHT22;13810;48.376;10.944;2023-05-29T03:20:04;8.50;99.90
26037;DHT22;13810;48.376;10.944;2023-05-29T03:20:38;8.50;99.90
26037;DHT22;13810;48.376;10.944;2023-05-29T03:21:09;8.50;99.90
26037;DHT22;13810;48.376;10.944;2023-05-29T03:21:39;8.50;99.90
26037;DHT22;13810;48.376;10.944;2023-05-29T03:22:10;8.50;99.90
26037;DHT22;13810;48.376;10.944;2023-05-29T03:22:41;8.50;99.90
26037;DHT22;13810;48.376;10.944;2023-05-29T03:23:11;8.60;99.90
26037;DHT22;13810;48.376;10.944;2023-05-29T03:23:43;8.60;99.90
26037;DHT22;13810;48.376;10.944;2023-05-29T03:24:13;8.50;99.90
26037;DHT22;13810;48.376;10.944;2023-05-29T03:24:44;8.60;99.90
26037;DHT22;13810;48.376;10.944;2023-05-29T03:25:15;8.50;99.90
26037;DHT22;13810;48.376;10.944;2023-05-29T03:25:46;8.50;99.90
26037;DHT22;13810;48.376;10.944;2023-05-29T03:26:17;8.50;99.90
26037;DHT22;13810;48.376;10.944;2023-05-29T03:26:48;8.60;99.90
26037;DHT22;13810;48.376;10.944;2023-05-29T03:27:18;8.50;99.90